Time;durP1;ratioP1;P1;durP2;ratioP2;P2;SDS_P1;SDS_P2;PMS_P1;PMS_P2;Temp;Humidity;BMP_temperature;BMP_pressure;BME280_temperature;BME280_humidity;BME280_pressure;Samples;Min_cycle;Max_cycle;Signal;HPM_P1;HPM_P2
2024/03/24 00:01:18;;;;;;;;;;;;;;;;;;5011146;28;20773;-70
2024/03/24 00:03:46;;;;;;;;;;;;;;;;;;5015811;28;19917;-71
2024/03/24 00:06:14;;;;;;;;;;;;;;;;;;4995253;28;19928;-67
2024/03/24 00:08:39;;;;;;;;;;;;;;;;;;5013861;28;19954;-71
2024/03/24 00:11:07;;;;;;;;;;;;;;;;;;5015972;28;19913;-66
2024/03/24 00:13:34;;;;;;;;;;;;;;;;;;4976525;28;20301;-68
2024/03/24 00:16:02;;;;;;;;;;;;;;;;;;4997783;28;19917;-67
2024/03/24 00:18:28;;;;;;;;;;;;;;;;;;5011273;28;20512;-70
2024/03/24 00:20:55;;;;;;;;;;;;;;;;;;5017117;28;19917;-69
2024/03/24 00:23:20;;;;;;;;;;;;;;;;;;4998897;28;19917;-70
2024/03/24 00:25:46;;;;;;;;;;;;;;;;;;4998556;28;19928;-73
2024/03/24 00:28:11;;;;;;;;;;;;;;;;;;4982208;28;19917;-71
2024/03/24 00:30:36;;;;;;;;;;;;;;;;;;5015577;28;19925;-73
2024/03/24 00:33:02;;;;;;;;;;;;;;;;;;5009936;28;20296;-73
2024/03/24 00:35:29;;;;;;;;;;;;;;;;;;5013202;28;19938;-69
2024/03/24 00:37:55;;;;;;;;;;;;;;;;;;5017176;28;20468;-72
2024/03/24 00:40:22;;;;;;;;;;;;;;;;;;4998648;28;19949;-70
2024/03/24 00:42:51;;;;;;;;;;;;;;;;;;4998915;28;20060;-74
2024/03/24 00:45:19;;;;;;;;;;;;;;;;;;4996737;28;20012;-71
2024/03/24 00:47:44;;;;;;;;;;;;;;;;;;4978322;28;19917;-71
2024/03/24 00:50:12;;;;;;;;;;;;;;;;;;4998357;28;19921;-72
2024/03/24 00:52:37;;;;;;;;;;;;;;;;;;5016832;28;19927;-71
2024/03/24 00:55:05;;;;;;;;;;;;;;;;;;5002624;28;19917;-73
2024/03/24 00:57:32;;;;;;;;;;;;;;;;;;4977614;28;19917;-73
2024/03/24 00:59:58;;;;;;;;;;;;;;;;;;5015990;28;19924;-72
2024/03/24 01:02:25;;;;;;;;;;;;;;;;;;4990548;28;20301;-68
2024/03/24 01:04:53;;;;;;;;;;;;;;;;;;4983047;28;19953;-70
2024/03/24 01:07:18;;;;;;;;;;;;;;;;;;4997015;28;21570;-72
2024/03/24 01:09:46;;;;;;;;;;;;;;;;;;5015804;28;19921;-70
2024/03/24 01:12:14;;;;;;;;;;;;;;;;;;4996791;28;19924;-69
2024/03/24 01:14:39;;;;;;;;;;;;;;;;;;5013863;28;20634;-68
2024/03/24 01:17:05;;;;;;;;;;;;;;;;;;4995499;28;20172;-72
2024/03/24 01:19:30;;;;;;;;;;;;;;;;;;5015562;28;20071;-74
2024/03/24 01:21:58;;;;;;;;;;;;;;;;;;5016384;28;20296;-72
2024/03/24 01:24:23;;;;;;;;;;;;;;;;;;5016715;28;19927;-69
2024/03/24 01:26:51;;;;;;;;;;;;;;;;;;5015263;28;20387;-69
2024/03/24 01:29:19;;;;;;;;;;;;;;;;;;4997065;28;20038;-70
2024/03/24 01:31:44;;;;;;;;;;;;;;;;;;5008411;28;20359;-74
2024/03/24 01:34:12;;;;;;;;;;;;;;;;;;4996873;28;20348;-74
2024/03/24 01:36:37;;;;;;;;;;;;;;;;;;4993496;28;20324;-74
2024/03/24 01:39:05;;;;;;;;;;;;;;;;;;5016934;28;20310;-74
2024/03/24 01:41:30;;;;;;;;;;;;;;;;;;4989846;28;19964;-75
2024/03/24 01:43:55;;;;;;;;;;;;;;;;;;5012461;28;20445;-72
2024/03/24 01:46:26;;;;;;;;;;;;;;;;;;4997216;28;20249;-72
2024/03/24 01:48:51;;;;;;;;;;;;;;;;;;4988434;28;19917;-71
2024/03/24 01:51:18;;;;;;;;;;;;;;;;;;5016051;28;19991;-72
2024/03/24 01:53:49;;;;;;;;;;;;;;;;;;5015552;28;19925;-73
2024/03/24 01:56:14;;;;;;;;;;;;;;;;;;5012013;28;19927;-75
2024/03/24 01:58:42;;;;;;;;;;;;;;;;;;5010385;28;20472;-74
2024/03/24 02:01:10;;;;;;;;;;;;;;;;;;4996860;28;19921;-75
2024/03/24 02:03:38;;;;;;;;;;;;;;;;;;4995156;28;19932;-74
2024/03/24 02:06:03;;;;;;;;;;;;;;;;;;4996941;28;19975;-73
2024/03/24 02:08:31;;;;;;;;;;;;;;;;;;4997057;28;20062;-72
2024/03/24 02:10:57;;;;;;;;;;;;;;;;;;5015261;28;20600;-74
2024/03/24 02:13:24;;;;;;;;;;;;;;;;;;5013847;28;19924;-72
2024/03/24 02:15:49;;;;;;;;;;;;;;;;;;4997384;28;19927;-72
2024/03/24 02:18:19;;;;;;;;;;;;;;;;;;4995810;28;19924;-73
2024/03/24 02:20:45;;;;;;;;;;;;;;;;;;4994996;28;19921;-73
2024/03/24 02:23:13;;;;;;;;;;;;;;;;;;5013590;28;19948;-69
2024/03/24 02:25:38;;;;;;;;;;;;;;;;;;5014417;28;20012;-73
2024/03/24 02:28:06;;;;;;;;;;;;;;;;;;4978488;28;20280;-74
2024/03/24 02:30:31;;;;;;;;;;;;;;;;;;4994510;28;19921;-74
2024/03/24 02:32:59;;;;;;;;;;;;;;;;;;4991826;28;20427;-73
2024/03/24 02:35:30;;;;;;;;;;;;;;;;;;4985325;28;20296;-73
2024/03/24 02:37:57;;;;;;;;;;;;;;;;;;4999666;28;20403;-74
2024/03/24 02:40:25;;;;;;;;;;;;;;;;;;4991798;28;20388;-75
2024/03/24 02:42:51;;;;;;;;;;;;;;;;;;4995367;28;19964;-73
2024/03/24 02:45:16;;;;;;;;;;;;;;;;;;4991682;28;19921;-73
2024/03/24 02:47:41;;;;;;;;;;;;;;;;;;5015435;28;19922;-74
2024/03/24 02:53:23;;;;;;;;;;;;;;;;;;5014085;28;19927;-73
2024/03/24 02:55:51;;;;;;;;;;;;;;;;;;4994294;28;19921;-72
2024/03/24 02:58:16;;;;;;;;;;;;;;;;;;4994851;28;20341;-72
2024/03/24 03:00:41;;;;;;;;;;;;;;;;;;5010029;28;19928;-73
2024/03/24 03:03:07;;;;;;;;;;;;;;;;;;4991431;28;20691;-72
2024/03/24 03:05:32;;;;;;;;;;;;;;;;;;4993600;28;19917;-74
2024/03/24 03:08:00;;;;;;;;;;;;;;;;;;5013736;28;19921;-74
2024/03/24 03:10:30;;;;;;;;;;;;;;;;;;4996389;28;19917;-74
2024/03/24 03:12:58;;;;;;;;;;;;;;;;;;5011636;28;19921;-74
2024/03/24 03:15:23;;;;;;;;;;;;;;;;;;4979634;28;20457;-73
2024/03/24 03:17:48;;;;;;;;;;;;;;;;;;5014433;28;19979;-73
2024/03/24 03:20:16;;;;;;;;;;;;;;;;;;4995995;28;20402;-72
2024/03/24 03:22:41;;;;;;;;;;;;;;;;;;5009429;28;19953;-73
2024/03/24 03:25:07;;;;;;;;;;;;;;;;;;5013436;28;20015;-72
2024/03/24 03:27:32;;;;;;;;;;;;;;;;;;4979662;28;19935;-73
2024/03/24 03:29:57;;;;;;;;;;;;;;;;;;5005578;28;20538;-72
2024/03/24 03:32:25;;;;;;;;;;;;;;;;;;5001745;28;20443;-76
2024/03/24 03:34:52;;;;;;;;;;;;;;;;;;4993906;28;19932;-76
2024/03/24 03:37:17;;;;;;;;;;;;;;;;;;5008594;28;19921;-76
2024/03/24 03:39:42;;;;;;;;;;;;;;;;;;4994764;28;19921;-76
2024/03/24 03:42:10;;;;;;;;;;;;;;;;;;4978415;28;19921;-77
2024/03/24 03:44:35;;;;;;;;;;;;;;;;;;5004760;28;19923;-76
2024/03/24 03:47:01;;;;;;;;;;;;;;;;;;5013320;28;19956;-76
2024/03/24 03:49:26;;;;;;;;;;;;;;;;;;4996442;28;19921;-75
2024/03/24 03:51:56;;;;;;;;;;;;;;;;;;4979080;28;19921;-75
2024/03/24 03:54:25;;;;;;;;;;;;;;;;;;5012425;28;19921;-77
2024/03/24 03:56:50;;;;;;;;;;;;;;;;;;4994441;28;20164;-77
2024/03/24 03:59:15;;;;;;;;;;;;;;;;;;5012640;28;20400;-78
2024/03/24 04:01:40;;;;;;;;;;;;;;;;;;4993460;28;19921;-78
2024/03/24 04:04:08;;;;;;;;;;;;;;;;;;4995671;28;19921;-77
2024/03/24 04:06:33;;;;;;;;;;;;;;;;;;5012467;28;20457;-76
2024/03/24 04:08:59;;;;;;;;;;;;;;;;;;4991819;28;19933;-76
2024/03/24 04:11:24;;;;;;;;;;;;;;;;;;5008107;28;19917;-75
2024/03/24 04:13:49;;;;;;;;;;;;;;;;;;5012972;28;19979;-77
2024/03/24 04:16:17;;;;;;;;;;;;;;;;;;4991042;28;20369;-76
2024/03/24 04:18:43;;;;;;;;;;;;;;;;;;4976364;28;19923;-75
2024/03/24 04:21:08;;;;;;;;;;;;;;;;;;5015358;28;20003;-75
2024/03/24 04:23:33;;;;;;;;;;;;;;;;;;5012667;28;19999;-76
2024/03/24 04:25:59;;;;;;;;;;;;;;;;;;4996872;28;19925;-72
2024/03/24 04:28:27;;;;;;;;;;;;;;;;;;4981900;28;20012;-73
2024/03/24 04:30:55;;;;;;;;;;;;;;;;;;4996892;28;19921;-73
2024/03/24 04:33:20;;;;;;;;;;;;;;;;;;4998253;28;19932;-74
2024/03/24 04:35:47;;;;;;;;;;;;;;;;;;5017648;28;19920;-76
2024/03/24 04:38:15;;;;;;;;;;;;;;;;;;4998002;28;19921;-75
2024/03/24 04:40:40;;;;;;;;;;;;;;;;;;4983357;28;20538;-75
2024/03/24 04:43:07;;;;;;;;;;;;;;;;;;4975782;28;20011;-74
2024/03/24 04:45:35;;;;;;;;;;;;;;;;;;4992581;28;19957;-76
2024/03/24 04:48:05;;;;;;;;;;;;;;;;;;5016880;28;20372;-75
2024/03/24 04:50:30;;;;;;;;;;;;;;;;;;5016837;28;20003;-75
2024/03/24 04:52:55;;;;;;;;;;;;;;;;;;4999513;28;19929;-76
2024/03/24 04:55:21;;;;;;;;;;;;;;;;;;4993922;28;19917;-73
2024/03/24 04:57:49;;;;;;;;;;;;;;;;;;4998781;28;19913;-74
2024/03/24 05:00:15;;;;;;;;;;;;;;;;;;5013923;28;20497;-74
2024/03/24 05:02:40;;;;;;;;;;;;;;;;;;4994762;28;19921;-75
2024/03/24 05:05:06;;;;;;;;;;;;;;;;;;4993993;28;20404;-74
2024/03/24 05:07:34;;;;;;;;;;;;;;;;;;4994609;28;19921;-73
2024/03/24 05:09:59;;;;;;;;;;;;;;;;;;4994244;28;20371;-75
2024/03/24 05:12:24;;;;;;;;;;;;;;;;;;4998846;28;19920;-73
2024/03/24 05:14:50;;;;;;;;;;;;;;;;;;4997323;28;19921;-74
2024/03/24 05:17:17;;;;;;;;;;;;;;;;;;4977656;28;20224;-74
2024/03/24 05:19:42;;;;;;;;;;;;;;;;;;4997267;28;20008;-73
2024/03/24 05:22:07;;;;;;;;;;;;;;;;;;4997192;28;19939;-73
2024/03/24 05:24:33;;;;;;;;;;;;;;;;;;5002931;28;19917;-73
2024/03/24 05:26:58;;;;;;;;;;;;;;;;;;4992845;28;20387;-73
2024/03/24 05:29:23;;;;;;;;;;;;;;;;;;4989785;28;19964;-72
2024/03/24 05:31:55;;;;;;;;;;;;;;;;;;4983877;28;20277;-70
2024/03/24 05:34:23;;;;;;;;;;;;;;;;;;5014872;28;19917;-72
2024/03/24 05:36:48;;;;;;;;;;;;;;;;;;4984185;28;19920;-71
2024/03/24 05:39:13;;;;;;;;;;;;;;;;;;5014981;28;19917;-72
2024/03/24 05:41:39;;;;;;;;;;;;;;;;;;5015226;28;19917;-69
2024/03/24 05:44:04;;;;;;;;;;;;;;;;;;4989229;28;19916;-70
2024/03/24 05:46:32;;;;;;;;;;;;;;;;;;5007705;28;19922;-73
2024/03/24 05:48:57;;;;;;;;;;;;;;;;;;5015210;28;19940;-72
2024/03/24 05:51:28;;;;;;;;;;;;;;;;;;4999119;28;21340;-71
2024/03/24 05:53:53;;;;;;;;;;;;;;;;;;4992870;28;20376;-72
2024/03/24 05:56:19;;;;;;;;;;;;;;;;;;4998824;28;19983;-72
2024/03/24 05:58:47;;;;;;;;;;;;;;;;;;5013604;28;20349;-72
2024/03/24 06:01:12;;;;;;;;;;;;;;;;;;5016253;28;19928;-72
2024/03/24 06:03:40;;;;;;;;;;;;;;;;;;4997400;28;19968;-67
2024/03/24 06:06:08;;;;;;;;;;;;;;;;;;5017219;28;20122;-68
2024/03/24 06:08:34;;;;;;;;;;;;;;;;;;5015023;28;19921;-69
2024/03/24 06:10:59;;;;;;;;;;;;;;;;;;5015077;28;19913;-70
2024/03/24 06:13:24;;;;;;;;;;;;;;;;;;4993990;28;19921;-69
2024/03/24 06:15:52;;;;;;;;;;;;;;;;;;5015613;28;20385;-70
2024/03/24 06:18:18;;;;;;;;;;;;;;;;;;4992071;28;20552;-70
2024/03/24 06:20:46;;;;;;;;;;;;;;;;;;4994630;28;20561;-71
2024/03/24 06:23:11;;;;;;;;;;;;;;;;;;5003461;28;20438;-72
2024/03/24 06:25:36;;;;;;;;;;;;;;;;;;4994062;28;20016;-72
2024/03/24 06:28:02;;;;;;;;;;;;;;;;;;5015811;28;20331;-71
2024/03/24 06:30:30;;;;;;;;;;;;;;;;;;4990941;28;20127;-70
2024/03/24 06:32:56;;;;;;;;;;;;;;;;;;4992273;28;19925;-71
2024/03/24 06:35:23;;;;;;;;;;;;;;;;;;4992976;28;19936;-72
2024/03/24 06:37:49;;;;;;;;;;;;;;;;;;5013215;28;20391;-71
2024/03/24 06:40:14;;;;;;;;;;;;;;;;;;4997131;28;20028;-71
2024/03/24 06:42:59;;;;;;;;;;;;;;;;;;4993596;28;19925;-71
2024/03/24 06:45:30;;;;;;;;;;;;;;;;;;5013845;28;20009;-76
2024/03/24 06:47:56;;;;;;;;;;;;;;;;;;5014804;28;19913;-74
2024/03/24 06:50:24;;;;;;;;;;;;;;;;;;4974220;28;19928;-73
2024/03/24 06:52:52;;;;;;;;;;;;;;;;;;5015832;28;19917;-71
2024/03/24 06:55:20;;;;;;;;;;;;;;;;;;4996244;28;19963;-74
2024/03/24 06:57:45;;;;;;;;;;;;;;;;;;4996180;28;19921;-70
2024/03/24 07:00:13;;;;;;;;;;;;;;;;;;4995150;28;20273;-73
2024/03/24 07:02:39;;;;;;;;;;;;;;;;;;5014613;28;19928;-73
2024/03/24 07:05:04;;;;;;;;;;;;;;;;;;4991519;28;20011;-72
2024/03/24 07:07:30;;;;;;;;;;;;;;;;;;5015847;28;20011;-71
2024/03/24 07:09:58;;;;;;;;;;;;;;;;;;4976234;28;19921;-71
2024/03/24 07:12:23;;;;;;;;;;;;;;;;;;4996261;28;19917;-70
2024/03/24 07:14:49;;;;;;;;;;;;;;;;;;5013582;28;19921;-71
2024/03/24 07:17:15;;;;;;;;;;;;;;;;;;5015597;28;19925;-73
2024/03/24 07:19:43;;;;;;;;;;;;;;;;;;4992600;28;19917;-71
2024/03/24 07:22:08;;;;;;;;;;;;;;;;;;4993039;28;20015;-70
2024/03/24 07:24:36;;;;;;;;;;;;;;;;;;5012173;28;19921;-72
2024/03/24 07:27:04;;;;;;;;;;;;;;;;;;5013405;28;20206;-72
2024/03/24 07:29:29;;;;;;;;;;;;;;;;;;5013740;28;20437;-75
2024/03/24 07:31:59;;;;;;;;;;;;;;;;;;5012548;28;19935;-70
2024/03/24 07:34:25;;;;;;;;;;;;;;;;;;4996483;28;19920;-70
2024/03/24 07:36:50;;;;;;;;;;;;;;;;;;5011708;28;20025;-72
2024/03/24 07:39:15;;;;;;;;;;;;;;;;;;5012806;28;19944;-71
2024/03/24 07:41:40;;;;;;;;;;;;;;;;;;4991743;28;19917;-71
2024/03/24 07:44:08;;;;;;;;;;;;;;;;;;4998646;28;19984;-75
2024/03/24 07:46:37;;;;;;;;;;;;;;;;;;5014837;28;20443;-76
2024/03/24 07:49:03;;;;;;;;;;;;;;;;;;4996262;28;19988;-73
2024/03/24 07:51:30;;;;;;;;;;;;;;;;;;4975638;28;20445;-71
2024/03/24 07:53:56;;;;;;;;;;;;;;;;;;4995300;28;19921;-73
2024/03/24 07:56:24;;;;;;;;;;;;;;;;;;4994780;28;19917;-70
2024/03/24 07:58:52;;;;;;;;;;;;;;;;;;4996506;28;20669;-73
2024/03/24 08:01:20;;;;;;;;;;;;;;;;;;4981520;28;19987;-75
2024/03/24 08:03:46;;;;;;;;;;;;;;;;;;5019484;28;19917;-80
2024/03/24 08:06:14;;;;;;;;;;;;;;;;;;4998880;28;19921;-79
2024/03/24 08:08:42;;;;;;;;;;;;;;;;;;4998526;28;19923;-74
2024/03/24 08:11:07;;;;;;;;;;;;;;;;;;5018446;28;19921;-75
2024/03/24 08:13:33;;;;;;;;;;;;;;;;;;5001531;28;19925;-72
2024/03/24 08:15:58;;;;;;;;;;;;;;;;;;4998668;28;21497;-74
2024/03/24 08:18:23;;;;;;;;;;;;;;;;;;5000146;28;20514;-72
2024/03/24 08:20:48;;;;;;;;;;;;;;;;;;4995898;28;19921;-73
2024/03/24 08:23:16;;;;;;;;;;;;;;;;;;5017165;28;20017;-76
2024/03/24 08:25:47;;;;;;;;;;;;;;;;;;4996954;28;19983;-73
2024/03/24 08:28:12;;;;;;;;;;;;;;;;;;5000754;28;19917;-75
2024/03/24 08:30:42;;;;;;;;;;;;;;;;;;5019857;28;19995;-76
2024/03/24 08:33:14;;;;;;;;;;;;;;;;;;5004929;28;20311;-76
2024/03/24 08:35:40;;;;;;;;;;;;;;;;;;5001552;28;19968;-72
2024/03/24 08:38:08;;;;;;;;;;;;;;;;;;4997245;28;19913;-74
2024/03/24 08:40:33;;;;;;;;;;;;;;;;;;4994585;28;19972;-73
2024/03/24 08:42:58;;;;;;;;;;;;;;;;;;4978891;28;20136;-78
2024/03/24 08:45:29;;;;;;;;;;;;;;;;;;5016584;28;19921;-74
2024/03/24 08:47:54;;;;;;;;;;;;;;;;;;4981604;28;20059;-74
2024/03/24 08:50:19;;;;;;;;;;;;;;;;;;4996098;28;19921;-76
2024/03/24 08:52:44;;;;;;;;;;;;;;;;;;5017368;28;19962;-71
2024/03/24 08:55:10;;;;;;;;;;;;;;;;;;4988783;28;19928;-77
2024/03/24 08:57:37;;;;;;;;;;;;;;;;;;5017338;28;20383;-76
2024/03/24 09:00:03;;;;;;;;;;;;;;;;;;5018950;28;19959;-69
2024/03/24 09:02:28;;;;;;;;;;;;;;;;;;5004813;28;20905;-72
2024/03/24 09:04:56;;;;;;;;;;;;;;;;;;5000085;28;20016;-74
2024/03/24 09:07:25;;;;;;;;;;;;;;;;;;5017750;28;19963;-70
2024/03/24 09:09:53;;;;;;;;;;;;;;;;;;5000854;28;19921;-73
2024/03/24 09:12:21;;;;;;;;;;;;;;;;;;4998937;28;20373;-76
2024/03/24 09:14:49;;;;;;;;;;;;;;;;;;5015960;28;19917;-70
2024/03/24 09:17:14;;;;;;;;;;;;;;;;;;4996893;28;20412;-72
2024/03/24 09:19:40;;;;;;;;;;;;;;;;;;5017560;28;19966;-72
2024/03/24 09:22:05;;;;;;;;;;;;;;;;;;4998450;28;20407;-74
2024/03/24 09:24:31;;;;;;;;;;;;;;;;;;4998738;28;19957;-73
2024/03/24 09:26:57;;;;;;;;;;;;;;;;;;5017848;28;20067;-74
2024/03/24 09:29:22;;;;;;;;;;;;;;;;;;4993131;28;20043;-72
2024/03/24 09:31:50;;;;;;;;;;;;;;;;;;4993682;28;19978;-74
2024/03/24 09:34:15;;;;;;;;;;;;;;;;;;5013934;28;19921;-72
2024/03/24 09:36:43;;;;;;;;;;;;;;;;;;5017520;28;19921;-71
2024/03/24 09:39:08;;;;;;;;;;;;;;;;;;4976708;28;20393;-69
2024/03/24 09:41:36;;;;;;;;;;;;;;;;;;4994703;28;20399;-75
2024/03/24 09:44:03;;;;;;;;;;;;;;;;;;5015012;28;19921;-72
2024/03/24 09:46:34;;;;;;;;;;;;;;;;;;5015736;28;19920;-72
2024/03/24 09:48:59;;;;;;;;;;;;;;;;;;5011747;28;20012;-76
2024/03/24 09:51:27;;;;;;;;;;;;;;;;;;4984276;28;19917;-72
2024/03/24 09:53:52;;;;;;;;;;;;;;;;;;4991218;28;19948;-72
2024/03/24 09:56:18;;;;;;;;;;;;;;;;;;4993343;28;20343;-70
2024/03/24 09:58:45;;;;;;;;;;;;;;;;;;5017291;28;19917;-72
2024/03/24 10:01:11;;;;;;;;;;;;;;;;;;4993309;28;20045;-74
2024/03/24 10:03:40;;;;;;;;;;;;;;;;;;4994725;28;20109;-72
2024/03/24 10:06:08;;;;;;;;;;;;;;;;;;4993510;28;19921;-72
2024/03/24 10:08:33;;;;;;;;;;;;;;;;;;4995182;28;19921;-75
2024/03/24 10:11:01;;;;;;;;;;;;;;;;;;4996402;28;19931;-77
2024/03/24 10:13:26;;;;;;;;;;;;;;;;;;5004740;28;20569;-75
2024/03/24 10:15:52;;;;;;;;;;;;;;;;;;5014617;28;19928;-75
2024/03/24 10:18:17;;;;;;;;;;;;;;;;;;5016414;28;19917;-74
2024/03/24 10:20:48;;;;;;;;;;;;;;;;;;5014785;28;19917;-74
2024/03/24 10:23:16;;;;;;;;;;;;;;;;;;4996238;28;20499;-75
2024/03/24 10:25:47;;;;;;;;;;;;;;;;;;5014949;28;20471;-74
2024/03/24 10:28:16;;;;;;;;;;;;;;;;;;4998918;28;19925;-72
2024/03/24 10:30:41;;;;;;;;;;;;;;;;;;4975573;28;19980;-71
2024/03/24 10:33:06;;;;;;;;;;;;;;;;;;4992007;28;20040;-73
2024/03/24 10:35:31;;;;;;;;;;;;;;;;;;4994580;28;19962;-70
2024/03/24 10:37:57;;;;;;;;;;;;;;;;;;4997366;28;19983;-75
2024/03/24 10:40:22;;;;;;;;;;;;;;;;;;4993392;28;19968;-74
2024/03/24 10:42:53;;;;;;;;;;;;;;;;;;4997619;28;19917;-69
2024/03/24 10:45:21;;;;;;;;;;;;;;;;;;4993078;28;19952;-70
2024/03/24 10:47:46;;;;;;;;;;;;;;;;;;4985492;28;20016;-74
2024/03/24 10:50:14;;;;;;;;;;;;;;;;;;5015256;28;20546;-68
2024/03/24 10:52:44;;;;;;;;;;;;;;;;;;4977416;28;19996;-71
2024/03/24 10:55:10;;;;;;;;;;;;;;;;;;4990833;28;20308;-71
2024/03/24 10:57:37;;;;;;;;;;;;;;;;;;5013072;28;20388;-70
2024/03/24 11:00:03;;;;;;;;;;;;;;;;;;4991597;28;19928;-72
2024/03/24 11:02:31;;;;;;;;;;;;;;;;;;4996967;28;20520;-71
2024/03/24 11:04:59;;;;;;;;;;;;;;;;;;5013361;28;19921;-71
2024/03/24 11:10:41;;;;;;;;;;;;;;;;;;5014626;28;19971;-74
2024/03/24 11:13:07;;;;;;;;;;;;;;;;;;5015757;28;20047;-70
2024/03/24 11:15:35;;;;;;;;;;;;;;;;;;4995031;28;19913;-68
2024/03/24 11:18:03;;;;;;;;;;;;;;;;;;5013761;28;19923;-69
2024/03/24 11:20:30;;;;;;;;;;;;;;;;;;4990012;28;19917;-69
2024/03/24 11:22:56;;;;;;;;;;;;;;;;;;4972372;28;19924;-69
2024/03/24 11:25:23;;;;;;;;;;;;;;;;;;4996293;28;19917;-70
2024/03/24 11:27:49;;;;;;;;;;;;;;;;;;4996584;28;19925;-68
2024/03/24 11:30:15;;;;;;;;;;;;;;;;;;4990555;28;19917;-68
2024/03/24 11:32:40;;;;;;;;;;;;;;;;;;4978121;28;19930;-71
2024/03/24 11:35:07;;;;;;;;;;;;;;;;;;4993991;28;20550;-70
2024/03/24 11:37:34;;;;;;;;;;;;;;;;;;4975533;28;20003;-71
2024/03/24 11:39:59;;;;;;;;;;;;;;;;;;4998562;28;20400;-67
2024/03/24 11:42:27;;;;;;;;;;;;;;;;;;4996059;28;20020;-73
2024/03/24 11:44:55;;;;;;;;;;;;;;;;;;4991661;28;19918;-70
2024/03/24 11:47:20;;;;;;;;;;;;;;;;;;4973969;28;20169;-71
2024/03/24 11:49:45;;;;;;;;;;;;;;;;;;4968138;28;19960;-69
2024/03/24 11:52:11;;;;;;;;;;;;;;;;;;4999492;28;20650;-74
2024/03/24 11:57:26;;;;;;;;;;;;;;;;;;4977991;28;20099;-72
2024/03/24 11:59:52;;;;;;;;;;;;;;;;;;4976301;28;19926;-68
2024/03/24 12:02:17;;;;;;;;;;;;;;;;;;4982009;28;20014;-73
2024/03/24 12:04:42;;;;;;;;;;;;;;;;;;4978745;28;19925;-71
2024/03/24 12:07:10;;;;;;;;;;;;;;;;;;4971092;28;19921;-71
2024/03/24 12:09:35;;;;;;;;;;;;;;;;;;4995551;28;19929;-71
2024/03/24 12:12:01;;;;;;;;;;;;;;;;;;4980949;28;19918;-71
2024/03/24 12:14:29;;;;;;;;;;;;;;;;;;4980016;28;20373;-71
2024/03/24 12:16:57;;;;;;;;;;;;;;;;;;4961090;28;20393;-69
2024/03/24 12:19:22;;;;;;;;;;;;;;;;;;4975204;28;19925;-72
2024/03/24 12:21:50;;;;;;;;;;;;;;;;;;4998636;28;20022;-69
2024/03/24 12:24:15;;;;;;;;;;;;;;;;;;4996298;28;20362;-73
2024/03/24 12:26:45;;;;;;;;;;;;;;;;;;4974694;28;19971;-73
2024/03/24 12:29:13;;;;;;;;;;;;;;;;;;4975983;28;20433;-72
2024/03/24 12:31:38;;;;;;;;;;;;;;;;;;4984908;28;20227;-71
2024/03/24 12:34:03;;;;;;;;;;;;;;;;;;5000399;28;19932;-73
2024/03/24 12:36:32;;;;;;;;;;;;;;;;;;5011837;28;20029;-75
2024/03/24 12:39:03;;;;;;;;;;;;;;;;;;4984874;28;19917;-76
2024/03/24 12:41:28;;;;;;;;;;;;;;;;;;5014417;28;19979;-74
2024/03/24 12:43:53;;;;;;;;;;;;;;;;;;5008679;28;19921;-72
2024/03/24 12:46:19;;;;;;;;;;;;;;;;;;5013784;28;19917;-73
2024/03/24 12:48:44;;;;;;;;;;;;;;;;;;5013411;28;20017;-70
2024/03/24 12:51:14;;;;;;;;;;;;;;;;;;4996527;28;19917;-73
2024/03/24 12:53:39;;;;;;;;;;;;;;;;;;5013698;28;19924;-72
2024/03/24 12:59:24;;;;;;;;;;;;;;;;;;5010910;28;19940;-74
2024/03/24 13:01:52;;;;;;;;;;;;;;;;;;5013112;28;20222;-75
2024/03/24 13:04:20;;;;;;;;;;;;;;;;;;4990566;28;19928;-74
2024/03/24 13:06:46;;;;;;;;;;;;;;;;;;5013874;28;19917;-73
2024/03/24 13:09:11;;;;;;;;;;;;;;;;;;4995764;28;19923;-74
2024/03/24 13:11:39;;;;;;;;;;;;;;;;;;4995140;28;19917;-68
2024/03/24 13:14:04;;;;;;;;;;;;;;;;;;5010225;28;19964;-70
2024/03/24 13:16:30;;;;;;;;;;;;;;;;;;5012943;28;19996;-69
2024/03/24 13:18:57;;;;;;;;;;;;;;;;;;5000660;28;19961;-69
2024/03/24 13:21:22;;;;;;;;;;;;;;;;;;5000334;28;20357;-69
2024/03/24 13:23:50;;;;;;;;;;;;;;;;;;5011328;28;19921;-70
2024/03/24 13:26:16;;;;;;;;;;;;;;;;;;4998746;28;20474;-71
2024/03/24 13:28:41;;;;;;;;;;;;;;;;;;4993977;28;19956;-70
2024/03/24 13:31:08;;;;;;;;;;;;;;;;;;5011507;28;19917;-73
2024/03/24 13:33:38;;;;;;;;;;;;;;;;;;5015587;28;23584;-71
2024/03/24 13:36:08;;;;;;;;;;;;;;;;;;5008636;28;20075;-71
2024/03/24 13:38:34;;;;;;;;;;;;;;;;;;5015514;28;19972;-73
2024/03/24 13:40:59;;;;;;;;;;;;;;;;;;4997671;28;20122;-72
2024/03/24 13:43:24;;;;;;;;;;;;;;;;;;5016114;28;19921;-69
2024/03/24 13:45:49;;;;;;;;;;;;;;;;;;5013229;28;20341;-69
2024/03/24 13:48:15;;;;;;;;;;;;;;;;;;4992491;28;19987;-69
2024/03/24 13:50:40;;;;;;;;;;;;;;;;;;4981579;28;19953;-70
2024/03/24 13:53:05;;;;;;;;;;;;;;;;;;5001991;28;20036;-71
2024/03/24 13:55:30;;;;;;;;;;;;;;;;;;5009265;28;20325;-70
2024/03/24 13:57:59;;;;;;;;;;;;;;;;;;5015370;28;19921;-71
2024/03/24 14:00:25;;;;;;;;;;;;;;;;;;4993759;28;20407;-69
2024/03/24 14:02:50;;;;;;;;;;;;;;;;;;4996277;28;20596;-71
2024/03/24 14:05:15;;;;;;;;;;;;;;;;;;5015921;28;19921;-72
2024/03/24 14:07:40;;;;;;;;;;;;;;;;;;4991090;28;19927;-72
2024/03/24 14:10:11;;;;;;;;;;;;;;;;;;5016970;28;20612;-72
2024/03/24 14:12:36;;;;;;;;;;;;;;;;;;5013583;28;20349;-70
2024/03/24 14:15:03;;;;;;;;;;;;;;;;;;4996656;28;19967;-71
2024/03/24 14:17:28;;;;;;;;;;;;;;;;;;4995944;28;19996;-73
2024/03/24 14:19:56;;;;;;;;;;;;;;;;;;4997965;28;20818;-73
2024/03/24 14:22:21;;;;;;;;;;;;;;;;;;5001298;28;20103;-74
2024/03/24 14:24:49;;;;;;;;;;;;;;;;;;4995753;28;20020;-74
2024/03/24 14:27:14;;;;;;;;;;;;;;;;;;4982247;28;19917;-75
2024/03/24 14:29:43;;;;;;;;;;;;;;;;;;5007636;28;19917;-73
2024/03/24 14:32:13;;;;;;;;;;;;;;;;;;4995846;28;19917;-76
2024/03/24 14:34:39;;;;;;;;;;;;;;;;;;4975944;28;19928;-75
2024/03/24 14:37:04;;;;;;;;;;;;;;;;;;5000337;28;19917;-78
2024/03/24 14:39:32;;;;;;;;;;;;;;;;;;5012412;28;19917;-74
2024/03/24 14:42:00;;;;;;;;;;;;;;;;;;4993706;28;20317;-75
2024/03/24 14:44:28;;;;;;;;;;;;;;;;;;5014734;28;19921;-77
2024/03/24 14:46:53;;;;;;;;;;;;;;;;;;5014222;28;19932;-74
2024/03/24 14:49:21;;;;;;;;;;;;;;;;;;5017700;28;19944;-75
2024/03/24 14:51:51;;;;;;;;;;;;;;;;;;5001390;28;20503;-73
2024/03/24 14:54:17;;;;;;;;;;;;;;;;;;5015866;28;19971;-77
2024/03/24 14:56:42;;;;;;;;;;;;;;;;;;4995986;28;20011;-70
2024/03/24 14:59:07;;;;;;;;;;;;;;;;;;5014060;28;19921;-74
2024/03/24 15:01:33;;;;;;;;;;;;;;;;;;4997322;28;19928;-71
2024/03/24 15:04:00;;;;;;;;;;;;;;;;;;5013458;28;20363;-71
2024/03/24 15:06:29;;;;;;;;;;;;;;;;;;5001430;28;20369;-74
2024/03/24 15:08:55;;;;;;;;;;;;;;;;;;4995794;28;19928;-71
2024/03/24 15:11:21;;;;;;;;;;;;;;;;;;5014339;28;19917;-73
2024/03/24 15:13:48;;;;;;;;;;;;;;;;;;4997001;28;19932;-67
2024/03/24 15:16:18;;;;;;;;;;;;;;;;;;4993155;28;19975;-68
2024/03/24 15:18:46;;;;;;;;;;;;;;;;;;5002443;28;19925;-69
2024/03/24 15:21:11;;;;;;;;;;;;;;;;;;4994154;28;19971;-70
2024/03/24 15:23:37;;;;;;;;;;;;;;;;;;5015112;28;20412;-69
2024/03/24 15:26:02;;;;;;;;;;;;;;;;;;4991082;28;19936;-69
2024/03/24 15:28:27;;;;;;;;;;;;;;;;;;4990560;28;19999;-71
2024/03/24 15:30:52;;;;;;;;;;;;;;;;;;4990171;28;19925;-68
2024/03/24 15:33:18;;;;;;;;;;;;;;;;;;4989162;28;20872;-73
2024/03/24 15:35:44;;;;;;;;;;;;;;;;;;5013463;28;19913;-73
2024/03/24 15:38:14;;;;;;;;;;;;;;;;;;5013145;28;19921;-71
2024/03/24 15:40:40;;;;;;;;;;;;;;;;;;4994679;28;20502;-70
2024/03/24 15:43:05;;;;;;;;;;;;;;;;;;4993387;28;20010;-68
2024/03/24 15:45:30;;;;;;;;;;;;;;;;;;4995376;28;19917;-67
2024/03/24 15:47:58;;;;;;;;;;;;;;;;;;5014535;28;19917;-69
2024/03/24 15:50:29;;;;;;;;;;;;;;;;;;4996946;28;19917;-68
2024/03/24 15:52:59;;;;;;;;;;;;;;;;;;4993279;28;19917;-72
2024/03/24 15:55:25;;;;;;;;;;;;;;;;;;4992397;28;20001;-70
2024/03/24 15:57:52;;;;;;;;;;;;;;;;;;4999539;28;20272;-70
2024/03/24 16:00:21;;;;;;;;;;;;;;;;;;4992333;28;20015;-68
2024/03/24 16:02:50;;;;;;;;;;;;;;;;;;4978601;28;19955;-69
2024/03/24 16:05:15;;;;;;;;;;;;;;;;;;5012019;28;19970;-71
2024/03/24 16:07:41;;;;;;;;;;;;;;;;;;4993895;28;20600;-66
2024/03/24 16:10:09;;;;;;;;;;;;;;;;;;4992713;28;20469;-67
2024/03/24 16:12:35;;;;;;;;;;;;;;;;;;4997306;28;21489;-67
2024/03/24 16:15:00;;;;;;;;;;;;;;;;;;4977925;28;19925;-70
2024/03/24 16:17:29;;;;;;;;;;;;;;;;;;5014532;28;19922;-68
2024/03/24 16:19:54;;;;;;;;;;;;;;;;;;4981340;28;19921;-72
2024/03/24 16:22:20;;;;;;;;;;;;;;;;;;5014753;28;20296;-67
2024/03/24 16:24:48;;;;;;;;;;;;;;;;;;5016877;28;20427;-68
2024/03/24 16:27:19;;;;;;;;;;;;;;;;;;4997244;28;20010;-68
2024/03/24 16:29:44;;;;;;;;;;;;;;;;;;5009354;28;19917;-70
2024/03/24 16:32:16;;;;;;;;;;;;;;;;;;4994509;28;19932;-70
2024/03/24 16:34:44;;;;;;;;;;;;;;;;;;5003776;28;20129;-69
2024/03/24 16:37:09;;;;;;;;;;;;;;;;;;5016731;28;19917;-68
2024/03/24 16:39:39;;;;;;;;;;;;;;;;;;4998009;28;20238;-68
2024/03/24 16:42:04;;;;;;;;;;;;;;;;;;4999146;28;20254;-68
2024/03/24 16:44:32;;;;;;;;;;;;;;;;;;4991214;28;19940;-68
2024/03/24 16:47:00;;;;;;;;;;;;;;;;;;4997880;28;19921;-67
2024/03/24 16:49:25;;;;;;;;;;;;;;;;;;5011840;28;20226;-68
2024/03/24 16:51:51;;;;;;;;;;;;;;;;;;4999548;28;20581;-67
2024/03/24 16:54:16;;;;;;;;;;;;;;;;;;4993422;28;19925;-69